sensor_id;sensor_type;location;lat;lon;timestamp;temperature;humidity
20345;DHT22;10330;48.816;9.278;2022-09-01T11:11:26;22.70;99.90
20345;DHT22;10330;48.816;9.278;2022-09-01T11:13:56;22.60;99.90
20345;DHT22;10330;48.816;9.278;2022-09-01T11:16:39;22.60;99.90
20345;DHT22;10330;48.816;9.278;2022-09-01T11:25:04;23.50;99.90
20345;DHT22;10330;48.816;9.278;2022-09-01T11:35:45;23.60;99.90
20345;DHT22;10330;48.816;9.278;2022-09-01T11:38:14;23.60;99.90
20345;DHT22;10330;48.816;9.278;2022-09-01T11:40:41;23.80;99.90
20345;DHT22;10330;48.816;9.278;2022-09-01T11:43:15;24.00;99.90
20345;DHT22;10330;48.816;9.278;2022-09-01T11:46:04;24.40;99.90
20345;DHT22;10330;48.816;9.278;2022-09-01T11:48:32;24.90;99.90
20345;DHT22;10330;48.816;9.278;2022-09-01T11:51:01;25.20;99.90
20345;DHT22;10330;48.816;9.278;2022-09-01T11:53:27;25.10;99.90
20345;DHT22;10330;48.816;9.278;2022-09-01T11:55:56;25.40;99.90
20345;DHT22;10330;48.816;9.278;2022-09-01T11:58:36;25.80;99.90
20345;DHT22;10330;48.816;9.278;2022-09-01T12:03:40;26.70;99.90
20345;DHT22;10330;48.816;9.278;2022-09-01T12:06:09;27.10;99.90
20345;DHT22;10330;48.816;9.278;2022-09-01T12:08:41;27.60;99.90
20345;DHT22;10330;48.816;9.278;2022-09-01T12:11:12;28.00;99.90
20345;DHT22;10330;48.816;9.278;2022-09-01T12:14:03;28.40;99.90
20345;DHT22;10330;48.816;9.278;2022-09-01T12:16:32;28.60;99.90
20345;DHT22;10330;48.816;9.278;2022-09-01T12:19:00;28.70;99.90
20345;DHT22;10330;48.816;9.278;2022-09-01T12:21:31;28.80;99.90
20345;DHT22;10330;48.816;9.278;2022-09-01T12:24:19;29.20;99.90
20345;DHT22;10330;48.816;9.278;2022-09-01T12:26:49;29.30;99.90
20345;DHT22;10330;48.816;9.278;2022-09-01T12:29:16;29.60;99.90
20345;DHT22;10330;48.816;9.278;2022-09-01T12:31:45;29.90;99.90
20345;DHT22;10330;48.816;9.278;2022-09-01T12:37:21;30.10;99.90
20345;DHT22;10330;48.816;9.278;2022-09-01T12:39:52;30.20;99.90
20345;DHT22;10330;48.816;9.278;2022-09-01T12:45:08;30.20;99.90
20345;DHT22;10330;48.816;9.278;2022-09-01T12:52:54;30.30;99.90
20345;DHT22;10330;48.816;9.278;2022-09-01T12:55:27;30.00;99.90
20345;DHT22;10330;48.816;9.278;2022-09-01T12:57:59;30.30;99.90
20345;DHT22;10330;48.816;9.278;2022-09-01T13:00:29;30.40;99.90
20345;DHT22;10330;48.816;9.278;2022-09-01T13:05:32;30.70;99.90
20345;DHT22;10330;48.816;9.278;2022-09-01T13:08:04;30.70;99.90
20345;DHT22;10330;48.816;9.278;2022-09-01T13:10:37;30.40;99.90
20345;DHT22;10330;48.816;9.278;2022-09-01T13:13:05;30.20;99.90
20345;DHT22;10330;48.816;9.278;2022-09-01T13:15:33;30.40;99.90
20345;DHT22;10330;48.816;9.278;2022-09-01T13:17:59;30.90;99.90
20345;DHT22;10330;48.816;9.278;2022-09-01T13:20:26;31.30;99.90
20345;DHT22;10330;48.816;9.278;2022-09-01T13:22:52;31.30;99.90
20345;DHT22;10330;48.816;9.278;2022-09-01T13:25:20;31.30;98.80
20345;DHT22;10330;48.816;9.278;2022-09-01T13:27:47;31.60;99.20
20345;DHT22;10330;48.816;9.278;2022-09-01T13:30:19;31.80;98.80
20345;DHT22;10330;48.816;9.278;2022-09-01T13:32:47;32.20;98.40
20345;DHT22;10330;48.816;9.278;2022-09-01T13:35:16;32.10;96.90
20345;DHT22;10330;48.816;9.278;2022-09-01T13:37:45;31.40;97.80
20345;DHT22;10330;48.816;9.278;2022-09-01T13:40:12;30.40;97.70
20345;DHT22;10330;48.816;9.278;2022-09-01T13:42:51;30.40;99.90
20345;DHT22;10330;48.816;9.278;2022-09-01T13:45:20;30.70;98.30
20345;DHT22;10330;48.816;9.278;2022-09-01T13:47:50;30.60;98.70
20345;DHT22;10330;48.816;9.278;2022-09-01T13:50:19;30.90;98.90
20345;DHT22;10330;48.816;9.278;2022-09-01T13:52:50;30.80;98.60
20345;DHT22;10330;48.816;9.278;2022-09-01T13:55:20;31.10;98.20
20345;DHT22;10330;48.816;9.278;2022-09-01T13:57:46;31.20;98.10
20345;DHT22;10330;48.816;9.278;2022-09-01T14:00:17;31.10;97.80
20345;DHT22;10330;48.816;9.278;2022-09-01T14:02:46;31.10;97.10
20345;DHT22;10330;48.816;9.278;2022-09-01T14:05:15;31.30;97.50
20345;DHT22;10330;48.816;9.278;2022-09-01T14:07:42;31.50;97.70
20345;DHT22;10330;48.816;9.278;2022-09-01T14:10:08;32.00;97.20
20345;DHT22;10330;48.816;9.278;2022-09-01T14:12:35;32.20;96.90
20345;DHT22;10330;48.816;9.278;2022-09-01T14:15:01;32.10;96.40
20345;DHT22;10330;48.816;9.278;2022-09-01T14:17:27;31.90;96.40
20345;DHT22;10330;48.816;9.278;2022-09-01T14:19:54;31.90;96.40
20345;DHT22;10330;48.816;9.278;2022-09-01T14:22:22;31.70;95.80
20345;DHT22;10330;48.816;9.278;2022-09-01T14:24:48;31.50;96.70
20345;DHT22;10330;48.816;9.278;2022-09-01T14:27:14;31.60;96.00
20345;DHT22;10330;48.816;9.278;2022-09-01T14:29:41;31.80;96.10
20345;DHT22;10330;48.816;9.278;2022-09-01T14:32:07;31.70;95.40
20345;DHT22;10330;48.816;9.278;2022-09-01T14:34:34;31.80;95.60
20345;DHT22;10330;48.816;9.278;2022-09-01T14:37:01;31.50;95.40
20345;DHT22;10330;48.816;9.278;2022-09-01T14:39:29;31.20;95.70
20345;DHT22;10330;48.816;9.278;2022-09-01T14:41:58;31.40;95.60
20345;DHT22;10330;48.816;9.278;2022-09-01T14:44:25;31.40;95.50
20345;DHT22;10330;48.816;9.278;2022-09-01T14:46:51;31.40;94.80
20345;DHT22;10330;48.816;9.278;2022-09-01T14:49:19;31.00;95.60
20345;DHT22;10330;48.816;9.278;2022-09-01T14:51:45;30.50;95.70
20345;DHT22;10330;48.816;9.278;2022-09-01T14:54:11;30.80;95.30
20345;DHT22;10330;48.816;9.278;2022-09-01T14:56:41;30.90;95.00
20345;DHT22;10330;48.816;9.278;2022-09-01T14:59:07;30.90;94.50
20345;DHT22;10330;48.816;9.278;2022-09-01T15:01:35;30.90;94.20
20345;DHT22;10330;48.816;9.278;2022-09-01T15:04:02;31.40;94.90
20345;DHT22;10330;48.816;9.278;2022-09-01T15:06:28;31.30;94.20
20345;DHT22;10330;48.816;9.278;2022-09-01T15:08:54;30.40;93.40
20345;DHT22;10330;48.816;9.278;2022-09-01T15:11:21;29.40;94.50
20345;DHT22;10330;48.816;9.278;2022-09-01T15:13:47;28.80;95.40
20345;DHT22;10330;48.816;9.278;2022-09-01T15:16:20;28.10;96.20
20345;DHT22;10330;48.816;9.278;2022-09-01T15:18:47;27.70;97.20
20345;DHT22;10330;48.816;9.278;2022-09-01T15:21:37;27.60;97.80
20345;DHT22;10330;48.816;9.278;2022-09-01T15:24:06;27.60;98.00
20345;DHT22;10330;48.816;9.278;2022-09-01T15:26:33;27.70;98.20
20345;DHT22;10330;48.816;9.278;2022-09-01T15:29:00;28.30;97.50
20345;DHT22;10330;48.816;9.278;2022-09-01T15:31:30;28.50;97.10
20345;DHT22;10330;48.816;9.278;2022-09-01T15:34:00;28.20;97.30
20345;DHT22;10330;48.816;9.278;2022-09-01T15:36:27;28.20;97.40
20345;DHT22;10330;48.816;9.278;2022-09-01T15:38:55;28.90;97.40
20345;DHT22;10330;48.816;9.278;2022-09-01T15:41:27;29.30;96.00
20345;DHT22;10330;48.816;9.278;2022-09-01T15:43:56;29.80;95.90
20345;DHT22;10330;48.816;9.278;2022-09-01T15:46:24;29.80;95.70
20345;DHT22;10330;48.816;9.278;2022-09-01T15:48:58;29.40;96.40
20345;DHT22;10330;48.816;9.278;2022-09-01T15:54:05;28.40;97.60
20345;DHT22;10330;48.816;9.278;2022-09-01T15:56:32;27.90;97.70
20345;DHT22;10330;48.816;9.278;2022-09-01T15:58:59;27.60;98.20
20345;DHT22;10330;48.816;9.278;2022-09-01T16:01:27;27.50;98.70
20345;DHT22;10330;48.816;9.278;2022-09-01T16:03:54;27.80;98.70
20345;DHT22;10330;48.816;9.278;2022-09-01T16:06:21;28.40;98.50
20345;DHT22;10330;48.816;9.278;2022-09-01T16:08:48;29.10;97.20
20345;DHT22;10330;48.816;9.278;2022-09-01T16:11:15;29.50;96.80
20345;DHT22;10330;48.816;9.278;2022-09-01T16:13:42;29.90;96.80
20345;DHT22;10330;48.816;9.278;2022-09-01T16:21:48;30.00;95.20
20345;DHT22;10330;48.816;9.278;2022-09-01T16:24:18;29.60;95.00
20345;DHT22;10330;48.816;9.278;2022-09-01T16:26:46;29.70;94.90
20345;DHT22;10330;48.816;9.278;2022-09-01T16:32:21;29.80;94.50
20345;DHT22;10330;48.816;9.278;2022-09-01T16:34:50;29.70;94.50
20345;DHT22;10330;48.816;9.278;2022-09-01T16:40:40;29.10;94.20
20345;DHT22;10330;48.816;9.278;2022-09-01T16:54:28;28.10;96.90
20345;DHT22;10330;48.816;9.278;2022-09-01T16:57:15;27.70;97.70
20345;DHT22;10330;48.816;9.278;2022-09-01T17:02:45;27.10;98.80
20345;DHT22;10330;48.816;9.278;2022-09-01T17:05:29;26.70;99.70
20345;DHT22;10330;48.816;9.278;2022-09-01T17:10:57;25.80;99.90
20345;DHT22;10330;48.816;9.278;2022-09-01T17:16:13;25.20;99.90
20345;DHT22;10330;48.816;9.278;2022-09-01T17:18:44;25.00;99.90
20345;DHT22;10330;48.816;9.278;2022-09-01T17:23:56;24.70;99.90
20345;DHT22;10330;48.816;9.278;2022-09-01T17:26:28;24.50;99.90
20345;DHT22;10330;48.816;9.278;2022-09-01T17:31:49;24.20;99.90
20345;DHT22;10330;48.816;9.278;2022-09-01T17:43:14;23.70;99.90
20345;DHT22;10330;48.816;9.278;2022-09-01T17:48:42;23.40;99.90
20345;DHT22;10330;48.816;9.278;2022-09-01T17:51:21;23.20;99.90
20345;DHT22;10330;48.816;9.278;2022-09-01T18:10:12;22.80;99.90
20345;DHT22;10330;48.816;9.278;2022-09-01T18:12:39;22.70;99.90
20345;DHT22;10330;48.816;9.278;2022-09-01T18:17:44;22.40;99.90
20345;DHT22;10330;48.816;9.278;2022-09-01T18:20:28;22.30;99.90
20345;DHT22;10330;48.816;9.278;2022-09-01T18:23:03;22.30;99.90
20345;DHT22;10330;48.816;9.278;2022-09-01T18:25:45;22.30;99.90
20345;DHT22;10330;48.816;9.278;2022-09-01T18:28:13;22.20;99.90
20345;DHT22;10330;48.816;9.278;2022-09-01T18:30:51;22.10;99.90
20345;DHT22;10330;48.816;9.278;2022-09-01T18:33:26;22.00;99.90
20345;DHT22;10330;48.816;9.278;2022-09-01T18:45:32;21.80;99.90
20345;DHT22;10330;48.816;9.278;2022-09-01T18:50:57;21.60;99.90
20345;DHT22;10330;48.816;9.278;2022-09-01T18:59:05;21.40;99.90
20345;DHT22;10330;48.816;9.278;2022-09-01T19:01:49;21.20;99.90
20345;DHT22;10330;48.816;9.278;2022-09-01T19:04:29;21.20;99.90
20345;DHT22;10330;48.816;9.278;2022-09-01T19:09:53;21.10;99.90
20345;DHT22;10330;48.816;9.278;2022-09-01T19:12:32;21.00;99.90
20345;DHT22;10330;48.816;9.278;2022-09-01T19:20:23;20.80;99.90
20345;DHT22;10330;48.816;9.278;2022-09-01T19:23:24;20.70;99.90
20345;DHT22;10330;48.816;9.278;2022-09-01T19:25:56;20.70;99.90
20345;DHT22;10330;48.816;9.278;2022-09-01T19:34:07;20.50;99.90
20345;DHT22;10330;48.816;9.278;2022-09-01T19:36:41;20.40;99.90
20345;DHT22;10330;48.816;9.278;2022-09-01T19:39:12;20.30;99.90
20345;DHT22;10330;48.816;9.278;2022-09-01T19:47:25;20.20;99.90
20345;DHT22;10330;48.816;9.278;2022-09-01T19:50:00;20.10;99.90
20345;DHT22;10330;48.816;9.278;2022-09-01T19:52:51;20.10;99.90
20345;DHT22;10330;48.816;9.278;2022-09-01T20:01:22;19.90;99.90
20345;DHT22;10330;48.816;9.278;2022-09-01T20:03:56;19.80;99.90
20345;DHT22;10330;48.816;9.278;2022-09-01T20:06:34;19.80;99.90
20345;DHT22;10330;48.816;9.278;2022-09-01T20:09:23;19.70;99.90
20345;DHT22;10330;48.816;9.278;2022-09-01T20:19:59;19.60;99.90
20345;DHT22;10330;48.816;9.278;2022-09-01T20:25:17;19.40;99.90
20345;DHT22;10330;48.816;9.278;2022-09-01T20:30:26;19.40;99.90
20345;DHT22;10330;48.816;9.278;2022-09-01T20:33:51;19.30;99.90
20345;DHT22;10330;48.816;9.278;2022-09-01T20:38:51;19.30;99.90
20345;DHT22;10330;48.816;9.278;2022-09-01T20:47:08;19.20;99.90
20345;DHT22;10330;48.816;9.278;2022-09-01T20:49:36;19.20;99.90
20345;DHT22;10330;48.816;9.278;2022-09-01T20:52:26;19.20;99.90
20345;DHT22;10330;48.816;9.278;2022-09-01T20:55:18;19.20;99.90
20345;DHT22;10330;48.816;9.278;2022-09-01T20:58:04;19.10;99.90
20345;DHT22;10330;48.816;9.278;2022-09-01T21:00:35;19.10;99.90
20345;DHT22;10330;48.816;9.278;2022-09-01T21:06:25;19.00;99.90
20345;DHT22;10330;48.816;9.278;2022-09-01T21:12:21;18.90;99.90
20345;DHT22;10330;48.816;9.278;2022-09-01T21:22:17;18.80;99.90
20345;DHT22;10330;48.816;9.278;2022-09-01T21:24:44;18.70;99.90
20345;DHT22;10330;48.816;9.278;2022-09-01T21:30:02;18.70;99.90
20345;DHT22;10330;48.816;9.278;2022-09-01T21:32:31;18.70;99.90
20345;DHT22;10330;48.816;9.278;2022-09-01T21:34:59;18.60;99.90
20345;DHT22;10330;48.816;9.278;2022-09-01T21:37:27;18.50;99.90
20345;DHT22;10330;48.816;9.278;2022-09-01T21:39:56;18.50;99.90
20345;DHT22;10330;48.816;9.278;2022-09-01T21:42:33;18.50;99.90
20345;DHT22;10330;48.816;9.278;2022-09-01T21:45:02;18.50;99.90
20345;DHT22;10330;48.816;9.278;2022-09-01T21:47:30;18.40;99.90
20345;DHT22;10330;48.816;9.278;2022-09-01T21:49:57;18.40;99.90
20345;DHT22;10330;48.816;9.278;2022-09-01T22:22:06;17.90;99.90
20345;DHT22;10330;48.816;9.278;2022-09-01T22:24:38;17.90;99.90
20345;DHT22;10330;48.816;9.278;2022-09-01T22:27:07;17.90;99.90
20345;DHT22;10330;48.816;9.278;2022-09-01T22:29:42;17.80;99.90
20345;DHT22;10330;48.816;9.278;2022-09-01T22:32:29;17.80;99.90
20345;DHT22;10330;48.816;9.278;2022-09-01T22:35:54;17.80;99.90
20345;DHT22;10330;48.816;9.278;2022-09-01T22:38:24;17.80;99.90
20345;DHT22;10330;48.816;9.278;2022-09-01T22:40:58;17.70;99.90
20345;DHT22;10330;48.816;9.278;2022-09-01T22:43:33;17.70;99.90
20345;DHT22;10330;48.816;9.278;2022-09-01T22:46:00;17.60;99.90
20345;DHT22;10330;48.816;9.278;2022-09-01T22:48:27;17.60;99.90
20345;DHT22;10330;48.816;9.278;2022-09-01T22:50:54;17.50;99.90
20345;DHT22;10330;48.816;9.278;2022-09-01T22:53:30;17.50;99.90
20345;DHT22;10330;48.816;9.278;2022-09-01T22:56:31;17.60;99.90
20345;DHT22;10330;48.816;9.278;2022-09-01T22:59:24;17.60;99.90
20345;DHT22;10330;48.816;9.278;2022-09-01T23:01:55;17.50;99.90
20345;DHT22;10330;48.816;9.278;2022-09-01T23:04:22;17.50;99.90
20345;DHT22;10330;48.816;9.278;2022-09-01T23:06:51;17.40;99.90
20345;DHT22;10330;48.816;9.278;2022-09-01T23:09:18;17.40;99.90
20345;DHT22;10330;48.816;9.278;2022-09-01T23:11:45;17.30;99.90
20345;DHT22;10330;48.816;9.278;2022-09-01T23:14:12;17.30;99.90
20345;DHT22;10330;48.816;9.278;2022-09-01T23:16:39;17.30;99.90
20345;DHT22;10330;48.816;9.278;2022-09-01T23:19:05;17.30;99.90
20345;DHT22;10330;48.816;9.278;2022-09-01T23:21:34;17.20;99.90
20345;DHT22;10330;48.816;9.278;2022-09-01T23:24:00;17.20;99.90
20345;DHT22;10330;48.816;9.278;2022-09-01T23:26:28;17.20;99.90
20345;DHT22;10330;48.816;9.278;2022-09-01T23:28:55;17.10;99.90
20345;DHT22;10330;48.816;9.278;2022-09-01T23:31:25;17.00;99.90
20345;DHT22;10330;48.816;9.278;2022-09-01T23:33:52;17.00;99.90
20345;DHT22;10330;48.816;9.278;2022-09-01T23:36:21;17.00;99.90
20345;DHT22;10330;48.816;9.278;2022-09-01T23:38:48;17.00;99.90
20345;DHT22;10330;48.816;9.278;2022-09-01T23:41:19;16.90;99.90
20345;DHT22;10330;48.816;9.278;2022-09-01T23:43:49;16.90;99.90
20345;DHT22;10330;48.816;9.278;2022-09-01T23:46:25;16.90;99.90
20345;DHT22;10330;48.816;9.278;2022-09-01T23:48:52;16.80;99.90
20345;DHT22;10330;48.816;9.278;2022-09-01T23:51:21;16.80;99.90
20345;DHT22;10330;48.816;9.278;2022-09-01T23:53:48;16.80;99.90
20345;DHT22;10330;48.816;9.278;2022-09-01T23:56:18;16.80;99.90
20345;DHT22;10330;48.816;9.278;2022-09-01T23:58:45;16.80;99.90
